createdAt,value
2022-08-16T00:01:24.410Z,11.38
2022-08-16T00:03:53.664Z,13.93
2022-08-16T00:06:22.392Z,11.43
2022-08-16T00:08:50.405Z,12.32
2022-08-16T00:11:21.731Z,10.48
2022-08-16T00:13:53.337Z,11.75
2022-08-16T00:17:05.736Z,14.55
2022-08-16T00:19:10.756Z,12.15
2022-08-16T00:21:42.317Z,13.98
2022-08-16T00:24:11.593Z,11.00
2022-08-16T00:26:43.952Z,11.98
2022-08-16T00:29:16.314Z,14.13
2022-08-16T00:31:58.957Z,12.07
2022-08-16T00:34:43.419Z,12.77
2022-08-16T00:37:12.553Z,11.80
2022-08-16T00:39:45.513Z,19.58
2022-08-16T00:42:30.571Z,14.35
2022-08-16T00:45:09.652Z,13.18
2022-08-16T00:47:49.250Z,16.80
2022-08-16T00:50:20.636Z,13.85
2022-08-16T00:52:51.021Z,15.43
2022-08-16T00:55:22.364Z,10.80
2022-08-16T00:57:59.558Z,13.25
2022-08-16T01:00:33.629Z,18.38
2022-08-16T01:03:11.737Z,21.45
2022-08-16T01:05:41.095Z,13.82
2022-08-16T01:08:35.252Z,17.67
2022-08-16T01:10:59.883Z,17.67
2022-08-16T01:13:30.406Z,15.32
2022-08-16T01:16:01.133Z,15.35
2022-08-16T01:18:40.315Z,11.60
2022-08-16T01:21:22.168Z,17.42
2022-08-16T01:24:04.198Z,12.55
2022-08-16T01:26:35.382Z,14.73
2022-08-16T01:29:10.048Z,10.90
2022-08-16T01:31:42.510Z,19.52
2022-08-16T01:34:19.406Z,15.32
2022-08-16T01:37:02.737Z,11.60
2022-08-16T01:39:34.387Z,9.88
2022-08-16T01:42:12.206Z,12.23
2022-08-16T01:47:11.296Z,14.90
2022-08-16T01:53:31.954Z,13.43
2022-08-16T01:56:02.264Z,13.40
2022-08-16T01:58:30.504Z,13.23
2022-08-16T02:00:58.205Z,13.35
2022-08-16T02:03:26.577Z,11.13
2022-08-16T02:05:54.230Z,16.10
2022-08-16T02:08:33.385Z,11.45
2022-08-16T02:11:05.016Z,14.82
2022-08-16T02:13:32.880Z,11.40
2022-08-16T02:16:00.478Z,16.95
2022-08-16T02:18:28.848Z,11.90
2022-08-16T02:20:56.414Z,11.93
2022-08-16T02:23:24.610Z,14.90
2022-08-16T02:25:54.672Z,13.75
2022-08-16T02:28:24.823Z,13.35
2022-08-16T02:30:52.602Z,14.90
2022-08-16T02:33:20.781Z,15.75
2022-08-16T02:35:58.067Z,17.45
2022-08-16T02:38:26.492Z,16.13
2022-08-16T02:40:54.912Z,14.05
2022-08-16T02:43:26.684Z,12.57
2022-08-16T02:45:55.067Z,11.95
2022-08-16T02:48:28.406Z,13.73
2022-08-16T02:51:10.345Z,12.05
2022-08-16T02:53:48.120Z,12.65
2022-08-16T02:56:18.331Z,11.43
2022-08-16T02:58:48.785Z,12.95
2022-08-16T03:01:24.593Z,14.05
2022-08-16T03:04:30.061Z,12.85
2022-08-16T03:06:50.881Z,11.40
2022-08-16T03:09:25.044Z,14.20
2022-08-16T03:11:52.284Z,11.63
2022-08-16T03:14:24.645Z,14.65
2022-08-16T03:16:59.295Z,17.02
2022-08-16T03:19:48.068Z,27.90
2022-08-16T03:22:18.875Z,11.63
2022-08-16T03:24:47.238Z,17.38
2022-08-16T03:27:14.539Z,9.20
2022-08-16T03:29:54.396Z,12.75
2022-08-16T03:32:22.211Z,15.05
2022-08-16T03:34:49.838Z,10.15
2022-08-16T03:37:17.367Z,14.82
2022-08-16T03:39:44.609Z,15.45
2022-08-16T03:42:12.220Z,13.00
2022-08-16T03:44:49.640Z,14.02
2022-08-16T03:47:18.909Z,11.68
2022-08-16T03:49:47.433Z,13.18
2022-08-16T03:52:20.141Z,11.18
2022-08-16T03:54:57.498Z,13.20
2022-08-16T03:57:31.887Z,16.75
2022-08-16T04:00:06.699Z,15.05
2022-08-16T04:02:34.160Z,15.43
2022-08-16T04:05:03.869Z,11.93
2022-08-16T04:07:34.040Z,14.65
2022-08-16T04:10:35.608Z,9.30
2022-08-16T04:12:52.226Z,8.15
2022-08-16T04:15:23.994Z,11.45
2022-08-16T04:17:54.180Z,10.20
2022-08-16T04:20:23.782Z,10.10
2022-08-16T04:23:01.989Z,9.80
2022-08-16T04:25:29.565Z,11.25
2022-08-16T04:27:56.897Z,11.60
2022-08-16T04:30:31.842Z,9.90
2022-08-16T04:33:02.162Z,10.98
2022-08-16T04:35:34.212Z,10.95
2022-08-16T04:38:11.012Z,9.35
2022-08-16T04:40:50.013Z,8.93
2022-08-16T04:43:17.753Z,11.13
2022-08-16T04:45:47.247Z,10.85
2022-08-16T04:48:32.585Z,10.35
2022-08-16T04:51:01.721Z,8.90
2022-08-16T04:53:41.440Z,9.20
2022-08-16T04:56:11.562Z,10.65
2022-08-16T04:58:45.800Z,9.65
2022-08-16T05:01:16.380Z,10.60
2022-08-16T05:04:00.351Z,10.15
2022-08-16T05:06:45.329Z,11.90
2022-08-16T05:09:13.213Z,10.90
2022-08-16T05:11:40.696Z,10.90
2022-08-16T05:14:08.080Z,12.32
2022-08-16T05:16:38.204Z,10.93
2022-08-16T05:19:05.963Z,11.73
2022-08-16T05:21:39.601Z,10.10
2022-08-16T05:24:09.247Z,12.30
2022-08-16T05:26:36.599Z,12.98
2022-08-16T05:29:04.698Z,13.82
2022-08-16T05:31:33.007Z,11.18
2022-08-16T05:34:04.550Z,11.10
2022-08-16T05:36:34.150Z,9.45
2022-08-16T05:39:06.451Z,11.13
2022-08-16T05:41:45.522Z,10.02
2022-08-16T05:44:23.457Z,12.52
2022-08-16T05:46:54.092Z,9.32
2022-08-16T05:49:24.430Z,10.07
2022-08-16T05:51:52.745Z,10.93
2022-08-16T05:54:25.257Z,11.85
2022-08-16T05:56:54.389Z,11.40
2022-08-16T05:59:23.800Z,8.35
2022-08-16T06:01:51.306Z,9.45
2022-08-16T06:04:35.328Z,11.38
2022-08-16T06:07:07.071Z,8.82
2022-08-16T06:09:42.896Z,8.70
2022-08-16T06:12:12.442Z,9.32
2022-08-16T06:14:40.392Z,13.45
2022-08-16T06:17:07.755Z,8.50
2022-08-16T06:19:35.767Z,10.10
2022-08-16T06:22:05.132Z,9.73
2022-08-16T06:24:52.598Z,10.65
2022-08-16T06:27:19.704Z,11.52
2022-08-16T06:29:49.919Z,11.90
2022-08-16T06:32:27.413Z,10.45
2022-08-16T06:35:02.256Z,11.02
2022-08-16T06:37:36.912Z,9.82
2022-08-16T06:40:12.924Z,9.52
2022-08-16T06:42:53.950Z,9.65
2022-08-16T06:45:24.782Z,8.80
2022-08-16T06:47:57.054Z,9.85
2022-08-16T06:50:28.764Z,8.38
2022-08-16T06:53:06.673Z,8.35
2022-08-16T06:55:38.142Z,8.70
2022-08-16T06:58:08.317Z,8.13
2022-08-16T07:00:48.882Z,8.48
2022-08-16T07:03:28.436Z,8.55
2022-08-16T07:05:59.981Z,8.40
2022-08-16T07:08:29.406Z,9.82
2022-08-16T07:10:57.679Z,8.07
2022-08-16T07:13:57.707Z,10.98
2022-08-16T07:16:15.391Z,8.15
2022-08-16T07:18:58.696Z,8.00
2022-08-16T07:21:46.255Z,8.93
2022-08-16T07:24:30.550Z,7.68
2022-08-16T07:26:58.517Z,8.48
2022-08-16T07:29:25.733Z,7.68
2022-08-16T07:31:53.928Z,10.90
2022-08-16T07:34:34.957Z,9.20
2022-08-16T07:37:05.707Z,10.07
2022-08-16T07:39:34.648Z,11.68
2022-08-16T07:44:57.160Z,9.20
2022-08-16T07:47:31.737Z,9.27
2022-08-16T07:50:00.314Z,10.10
2022-08-16T07:52:34.939Z,11.40
2022-08-16T07:55:10.548Z,9.13
2022-08-16T08:00:26.569Z,9.65
2022-08-16T08:02:54.511Z,8.38
2022-08-16T08:05:25.334Z,8.98
2022-08-16T08:08:11.991Z,9.38
2022-08-16T08:10:54.619Z,8.95
2022-08-16T08:13:41.641Z,9.77
2022-08-16T08:16:09.769Z,8.73
2022-08-16T08:18:49.811Z,9.00
2022-08-16T08:21:17.930Z,8.00
2022-08-16T08:23:46.057Z,8.90
2022-08-16T08:26:19.145Z,9.02
2022-08-16T08:28:46.667Z,8.02
2022-08-16T08:31:16.269Z,9.50
2022-08-16T08:33:47.316Z,9.32
2022-08-16T08:36:33.548Z,8.27
2022-08-16T08:39:02.349Z,8.18
2022-08-16T08:41:31.101Z,7.38
2022-08-16T08:43:58.944Z,10.85
2022-08-16T08:46:27.757Z,7.38
2022-08-16T08:49:02.912Z,8.05
2022-08-16T08:51:32.036Z,7.88
2022-08-16T08:54:03.817Z,7.03
2022-08-16T08:56:36.772Z,8.75
2022-08-16T08:59:13.620Z,6.55
2022-08-16T09:01:57.119Z,5.70
2022-08-16T09:04:25.983Z,5.85
2022-08-16T09:06:55.050Z,7.03
2022-08-16T09:09:22.285Z,7.45
2022-08-16T09:12:03.892Z,6.05
2022-08-16T09:14:35.434Z,5.78
2022-08-16T09:17:11.939Z,6.13
2022-08-16T09:19:52.638Z,6.28
2022-08-16T09:22:23.145Z,6.35
2022-08-16T09:24:53.422Z,6.15
2022-08-16T09:27:23.510Z,6.30
2022-08-16T09:29:59.887Z,4.18
2022-08-16T09:32:30.701Z,5.00
2022-08-16T09:34:59.371Z,5.07
2022-08-16T09:37:29.490Z,4.70
2022-08-16T09:39:57.484Z,6.47
2022-08-16T09:42:29.396Z,5.75
2022-08-16T09:45:11.994Z,5.47
2022-08-16T09:47:57.292Z,7.03
2022-08-16T09:50:36.927Z,6.35
2022-08-16T09:53:15.065Z,4.78
2022-08-16T09:55:44.674Z,6.85
2022-08-16T09:58:41.970Z,6.70
2022-08-16T10:01:01.246Z,6.72
2022-08-16T10:03:31.876Z,5.70
2022-08-16T10:05:59.452Z,8.45
2022-08-16T10:08:27.557Z,5.57
2022-08-16T10:10:55.192Z,5.20
2022-08-16T10:13:23.704Z,7.43
2022-08-16T10:15:58.743Z,5.97
2022-08-16T10:18:56.775Z,6.55
2022-08-16T10:21:14.226Z,5.70
2022-08-16T10:23:42.081Z,5.70
2022-08-16T10:27:18.442Z,5.47
2022-08-16T10:29:00.414Z,7.47
2022-08-16T10:31:45.929Z,5.53
2022-08-16T10:34:30.953Z,6.65
2022-08-16T10:36:59.998Z,7.63
2022-08-16T10:39:40.450Z,7.40
2022-08-16T10:42:08.913Z,5.75
2022-08-16T10:44:37.959Z,9.52
2022-08-16T10:47:05.946Z,6.57
2022-08-16T10:49:33.458Z,5.53
2022-08-16T10:52:17.785Z,7.45
2022-08-16T10:57:33.390Z,9.77
2022-08-16T11:00:06.422Z,8.43
2022-08-16T11:02:59.577Z,6.85
2022-08-16T11:05:59.152Z,7.68
2022-08-16T11:08:17.201Z,6.15
2022-08-16T11:11:01.601Z,6.22
2022-08-16T11:16:26.384Z,7.55
2022-08-16T11:19:05.517Z,8.18
2022-08-16T11:21:35.175Z,7.63
2022-08-16T11:24:03.271Z,7.15
2022-08-16T11:27:18.553Z,7.63
2022-08-16T11:29:37.913Z,7.40
2022-08-16T11:32:07.633Z,6.78
2022-08-16T11:35:03.775Z,7.30
2022-08-16T11:37:27.457Z,8.30
2022-08-16T11:40:12.793Z,6.80
2022-08-16T11:42:42.271Z,6.57
2022-08-16T11:45:11.079Z,6.47
2022-08-16T11:47:40.687Z,6.00
2022-08-16T11:50:09.140Z,6.95
2022-08-16T11:52:36.744Z,5.28
2022-08-16T11:55:10.003Z,7.20
2022-08-16T11:57:38.768Z,8.07
2022-08-16T12:00:43.487Z,7.78
2022-08-16T12:03:00.007Z,8.18
2022-08-16T12:05:28.331Z,6.22
2022-08-16T12:07:56.125Z,5.68
2022-08-16T12:10:25.078Z,5.68
2022-08-16T12:12:57.986Z,8.40
2022-08-16T12:15:30.946Z,5.90
2022-08-16T12:18:00.123Z,7.15
2022-08-16T12:20:31.816Z,7.90
2022-08-16T12:23:00.215Z,6.40
2022-08-16T12:25:30.325Z,6.82
2022-08-16T12:27:57.804Z,6.03
2022-08-16T12:30:32.474Z,7.00
2022-08-16T12:33:05.654Z,7.57
2022-08-16T12:35:35.022Z,6.85
2022-08-16T12:38:38.049Z,6.25
2022-08-16T12:40:53.045Z,6.82
2022-08-16T12:43:23.525Z,6.32
2022-08-16T12:45:53.205Z,8.50
2022-08-16T12:48:35.031Z,8.68
2022-08-16T12:51:07.338Z,7.82
2022-08-16T12:53:46.841Z,8.75
2022-08-16T12:56:14.789Z,6.25
2022-08-16T12:58:49.351Z,7.90
2022-08-16T13:01:22.658Z,9.90
2022-08-16T13:04:12.356Z,6.65
2022-08-16T13:06:46.336Z,5.90
2022-08-16T13:09:15.072Z,7.43
2022-08-16T13:11:55.104Z,8.32
2022-08-16T13:14:31.300Z,7.53
2022-08-16T13:17:02.254Z,8.10
2022-08-16T13:19:49.814Z,5.93
2022-08-16T13:22:19.671Z,7.20
2022-08-16T13:24:47.397Z,6.10
2022-08-16T13:27:14.532Z,7.28
2022-08-16T13:29:43.684Z,8.10
2022-08-16T13:32:39.325Z,6.38
2022-08-16T13:35:01.115Z,6.95
2022-08-16T13:37:28.557Z,6.72
2022-08-16T13:39:56.411Z,6.85
2022-08-16T13:42:23.774Z,6.22
2022-08-16T13:44:58.022Z,7.15
2022-08-16T13:47:25.776Z,8.45
2022-08-16T13:49:58.024Z,7.47
2022-08-16T13:52:33.970Z,7.70
2022-08-16T13:55:02.457Z,8.18
2022-08-16T13:58:34.279Z,6.30
2022-08-16T14:00:19.530Z,9.63
2022-08-16T14:02:48.443Z,6.90
2022-08-16T14:05:20.083Z,6.78
2022-08-16T14:07:52.757Z,5.03
2022-08-16T14:10:20.415Z,6.65
2022-08-16T14:12:48.517Z,6.38
2022-08-16T14:15:16.234Z,6.55
2022-08-16T14:18:17.207Z,7.15
2022-08-16T14:20:31.316Z,7.60
2022-08-16T14:22:59.885Z,9.02
2022-08-16T14:25:27.644Z,6.80
2022-08-16T14:27:56.192Z,6.43
2022-08-16T14:30:24.051Z,8.60
2022-08-16T14:32:51.996Z,7.40
2022-08-16T14:35:22.096Z,5.55
2022-08-16T14:38:05.754Z,6.57
2022-08-16T14:40:34.120Z,6.72
2022-08-16T14:43:07.114Z,6.47
2022-08-16T14:45:35.301Z,8.98
2022-08-16T14:48:02.774Z,5.65
2022-08-16T14:50:31.733Z,4.50
2022-08-16T14:53:01.589Z,6.95
2022-08-16T14:55:34.335Z,5.30
2022-08-16T14:58:05.198Z,5.43
2022-08-16T15:00:34.617Z,7.10
2022-08-16T15:03:06.227Z,6.20
2022-08-16T15:05:33.971Z,5.68
2022-08-16T15:08:02.992Z,6.22
2022-08-16T15:10:32.136Z,5.57
2022-08-16T15:13:04.273Z,4.80
2022-08-16T15:15:34.645Z,5.93
2022-08-16T15:18:02.947Z,4.82
2022-08-16T15:20:32.351Z,4.85
2022-08-16T15:23:01.922Z,5.22
2022-08-16T15:25:31.946Z,6.05
2022-08-16T15:28:01.998Z,5.50
2022-08-16T15:30:59.682Z,5.72
2022-08-16T15:33:19.945Z,7.28
2022-08-16T15:35:48.383Z,5.57
2022-08-16T15:38:55.060Z,6.18
2022-08-16T15:41:04.030Z,5.22
2022-08-16T15:43:39.498Z,5.70
2022-08-16T15:46:08.819Z,7.65
2022-08-16T15:48:36.038Z,6.88
2022-08-16T15:51:08.294Z,7.45
2022-08-16T15:53:37.548Z,6.60
2022-08-16T15:56:05.453Z,5.50
2022-08-16T15:58:35.011Z,7.25
2022-08-16T16:01:06.173Z,5.80
2022-08-16T16:03:34.943Z,7.90
2022-08-16T16:06:02.361Z,6.45
2022-08-16T16:08:31.293Z,5.10
2022-08-16T16:11:00.255Z,7.07
2022-08-16T16:13:35.451Z,6.97
2022-08-16T16:16:04.203Z,7.75
2022-08-16T16:18:40.752Z,7.20
2022-08-16T16:21:19.933Z,6.95
2022-08-16T16:23:54.831Z,10.20
2022-08-16T16:26:25.137Z,5.95
2022-08-16T16:29:08.659Z,5.97
2022-08-16T16:31:44.011Z,5.82
2022-08-16T16:34:32.336Z,6.32
2022-08-16T16:37:03.196Z,6.43
2022-08-16T16:39:32.675Z,6.55
2022-08-16T16:42:00.058Z,8.57
2022-08-16T16:44:33.860Z,6.80
2022-08-16T16:47:04.285Z,6.03
2022-08-16T16:49:31.565Z,6.07
2022-08-16T16:52:07.264Z,6.13
2022-08-16T16:54:35.115Z,6.55
2022-08-16T16:57:02.453Z,6.35
2022-08-16T16:59:31.113Z,7.57
2022-08-16T17:02:41.055Z,9.55
2022-08-16T17:04:47.210Z,7.00
2022-08-16T17:07:14.996Z,7.18
2022-08-16T17:09:42.272Z,7.30
2022-08-16T17:12:12.285Z,5.70
2022-08-16T17:14:54.997Z,5.15
2022-08-16T17:17:23.184Z,6.47
2022-08-16T17:19:50.298Z,6.43
2022-08-16T17:22:20.449Z,5.93
2022-08-16T17:27:39.750Z,6.10
2022-08-16T17:30:14.901Z,7.30
2022-08-16T17:32:48.429Z,5.13
2022-08-16T17:35:20.294Z,6.95
2022-08-16T17:37:54.204Z,7.30
2022-08-16T17:39:26.769Z,6.65
2022-08-16T17:40:40.778Z,5.57
2022-08-16T17:43:11.983Z,5.80
2022-08-16T17:45:42.688Z,6.35
2022-08-16T17:48:10.148Z,7.13
2022-08-16T17:50:38.311Z,8.02
2022-08-16T17:53:06.414Z,5.57
2022-08-16T17:55:39.938Z,7.28
2022-08-16T17:58:22.241Z,7.32
2022-08-16T18:00:54.557Z,7.38
2022-08-16T18:04:02.377Z,9.98
2022-08-16T18:06:13.885Z,7.70
2022-08-16T18:08:41.448Z,8.32
2022-08-16T18:11:12.091Z,7.72
2022-08-16T18:13:40.691Z,8.77
2022-08-16T18:16:09.880Z,10.05
2022-08-16T18:18:37.125Z,11.13
2022-08-16T18:21:04.392Z,10.57
2022-08-16T18:23:32.315Z,11.23
2022-08-16T18:26:01.320Z,12.25
2022-08-16T18:28:29.627Z,11.05
2022-08-16T18:31:01.146Z,8.77
2022-08-16T18:33:43.205Z,11.73
2022-08-16T18:36:19.826Z,9.85
2022-08-16T18:38:48.715Z,6.72
2022-08-16T18:41:16.587Z,6.40
2022-08-16T18:44:22.289Z,7.15
2022-08-16T18:46:31.574Z,11.00
2022-08-16T18:49:00.199Z,12.00
2022-08-16T18:51:27.460Z,8.57
2022-08-16T18:53:55.048Z,5.75
2022-08-16T18:56:22.280Z,8.15
2022-08-16T18:58:49.881Z,10.38
2022-08-16T19:01:17.841Z,8.13
2022-08-16T19:03:45.066Z,8.32
2022-08-16T19:06:15.036Z,8.02
2022-08-16T19:08:44.895Z,9.63
2022-08-16T19:11:14.990Z,8.25
2022-08-16T19:13:42.583Z,10.15
2022-08-16T19:16:10.363Z,6.28
2022-08-16T19:18:37.598Z,9.57
2022-08-16T19:21:05.438Z,7.50
2022-08-16T19:23:37.207Z,8.90
2022-08-16T19:26:07.446Z,9.18
2022-08-16T19:28:50.755Z,10.38
2022-08-16T19:31:31.301Z,9.43
2022-08-16T19:33:59.292Z,10.73
2022-08-16T19:36:31.775Z,10.13
2022-08-16T19:39:05.891Z,8.65
2022-08-16T19:41:35.093Z,8.15
2022-08-16T19:44:03.257Z,9.00
2022-08-16T19:46:30.585Z,6.63
2022-08-16T19:48:58.035Z,9.48
2022-08-16T19:51:25.854Z,9.43
2022-08-16T19:53:53.165Z,10.60
2022-08-16T19:56:21.898Z,14.48
2022-08-16T19:59:16.217Z,8.13
2022-08-16T20:01:41.750Z,11.63
2022-08-16T20:04:10.886Z,12.43
2022-08-16T20:06:38.911Z,10.23
2022-08-16T20:09:07.118Z,11.70
2022-08-16T20:11:36.059Z,12.75
2022-08-16T20:14:03.367Z,12.88
2022-08-16T20:16:30.729Z,10.50
2022-08-16T20:18:58.157Z,12.02
2022-08-16T20:21:25.366Z,14.20
2022-08-16T20:23:55.956Z,12.43
2022-08-16T20:26:32.681Z,10.55
2022-08-16T20:29:01.276Z,10.68
2022-08-16T20:31:28.418Z,11.77
2022-08-16T20:33:55.922Z,11.70
2022-08-16T20:36:23.086Z,16.77
2022-08-16T20:38:50.364Z,13.35
2022-08-16T20:41:17.974Z,14.80
2022-08-16T20:43:46.231Z,10.90
2022-08-16T20:46:15.172Z,11.05
2022-08-16T20:48:43.175Z,12.45
2022-08-16T20:51:10.820Z,10.02
2022-08-16T20:53:38.705Z,8.98
2022-08-16T20:56:07.431Z,9.07
2022-08-16T20:58:34.870Z,9.02
2022-08-16T21:01:02.606Z,13.90
2022-08-16T21:03:31.950Z,7.97
2022-08-16T21:06:00.040Z,9.77
2022-08-16T21:08:52.131Z,10.82
2022-08-16T21:11:14.786Z,16.27
2022-08-16T21:13:42.998Z,9.15
2022-08-16T21:16:10.510Z,11.82
2022-08-16T21:18:39.350Z,9.80
2022-08-16T21:21:06.780Z,13.27
2022-08-16T21:23:34.104Z,12.25
2022-08-16T21:26:01.473Z,11.30
2022-08-16T21:28:39.159Z,10.25
2022-08-16T21:31:10.920Z,9.45
2022-08-16T21:33:39.658Z,13.30
2022-08-16T21:36:07.361Z,10.60
2022-08-16T21:38:35.246Z,10.77
2022-08-16T21:41:04.671Z,11.27
2022-08-16T21:43:32.933Z,9.48
2022-08-16T21:46:01.432Z,12.70
2022-08-16T21:48:34.830Z,10.75
2022-08-16T21:51:07.350Z,11.95
2022-08-16T21:53:35.557Z,11.23
2022-08-16T21:56:03.602Z,10.00
2022-08-16T21:58:31.646Z,12.70
2022-08-16T22:00:59.285Z,10.82
2022-08-16T22:03:26.479Z,11.43
2022-08-16T22:06:10.083Z,8.90
2022-08-16T22:08:48.801Z,14.20
2022-08-16T22:11:18.713Z,9.50
2022-08-16T22:13:57.430Z,10.75
2022-08-16T22:16:28.250Z,10.10
2022-08-16T22:18:55.393Z,12.38
2022-08-16T22:21:22.612Z,8.60
2022-08-16T22:23:56.749Z,13.13
2022-08-16T22:26:31.074Z,9.18
2022-08-16T22:29:00.428Z,9.85
2022-08-16T22:31:27.851Z,10.23
2022-08-16T22:33:55.002Z,13.65
2022-08-16T22:36:22.680Z,10.20
2022-08-16T22:38:55.715Z,10.75
2022-08-16T22:41:24.676Z,8.60
2022-08-16T22:43:51.907Z,12.52
2022-08-16T22:46:19.268Z,12.38
2022-08-16T22:48:47.084Z,11.57
2022-08-16T22:51:14.289Z,11.10
2022-08-16T22:53:41.476Z,14.93
2022-08-16T22:56:10.333Z,9.30
2022-08-16T22:58:37.569Z,10.95
2022-08-16T23:01:05.009Z,13.35
2022-08-16T23:03:33.145Z,14.25
2022-08-16T23:06:02.730Z,10.05
2022-08-16T23:08:38.410Z,16.27
2022-08-16T23:11:07.426Z,12.25
2022-08-16T23:13:36.300Z,9.98
2022-08-16T23:16:11.099Z,9.98
2022-08-16T23:18:39.468Z,10.13
2022-08-16T23:21:09.550Z,11.07
2022-08-16T23:23:37.545Z,8.93
2022-08-16T23:26:43.913Z,10.40
2022-08-16T23:28:55.297Z,8.85
2022-08-16T23:31:22.747Z,15.45
2022-08-16T23:33:49.898Z,10.77
2022-08-16T23:36:17.177Z,10.90
2022-08-16T23:38:44.730Z,14.82
2022-08-16T23:41:12.357Z,11.15
2022-08-16T23:43:41.584Z,10.75
2022-08-16T23:46:13.187Z,12.95
2022-08-16T23:49:58.039Z,11.93
2022-08-16T23:51:28.293Z,13.52
2022-08-16T23:53:55.543Z,13.55
2022-08-16T23:56:22.827Z,9.90
2022-08-16T23:59:02.088Z,11.30
